Time;durP1;ratioP1;P1;durP2;ratioP2;P2;SDS_P1;SDS_P2;PMS_P1;PMS_P2;Temp;Humidity;BMP_temperature;BMP_pressure;BME280_temperature;BME280_humidity;BME280_pressure;Samples;Min_cycle;Max_cycle;Signal;HPM_P1;HPM_P2
2022/11/22 00:02:48;;;;;;;;;;;;;;;7.54;100.00;97217.63;10221338;23;20255;-78
2022/11/22 00:06:49;;;;;;;;;;;;;;;7.56;100.00;97226.19;10228121;23;20006;-78
2022/11/22 00:10:51;;;;;;;;;;;;;;;7.55;100.00;97216.75;10202449;23;19996;-79
2022/11/22 00:14:52;;;;;;;;;;;;;;;7.56;100.00;97221.88;10203813;23;20016;-78
2022/11/22 00:18:57;;;;;;;;;;;;;;;7.57;100.00;97225.31;10195892;23;20248;-78
2022/11/22 00:22:58;;;;;;;;;;;;;;;7.58;100.00;97225.28;10229505;23;19960;-78
2022/11/22 00:27:00;;;;;;;;;;;;;;;7.56;100.00;97239.13;10229641;23;19946;-78
2022/11/22 00:31:01;;;;;;;;;;;;;;;7.57;100.00;97235.63;10195133;23;19995;-78
2022/11/22 00:35:02;;;;;;;;;;;;;;;7.54;100.00;97240.88;10205376;22;19920;-77
2022/11/22 00:39:04;;;;;;;;;;;;;;;7.56;100.00;97244.28;10206927;23;19924;-77
2022/11/22 00:43:05;;;;;;;;;;;;;;;7.56;100.00;97250.28;10182345;23;20300;-78
2022/11/22 00:47:07;;;;;;;;;;;;;;;7.57;100.00;97257.16;10175958;23;19924;-77
2022/11/22 00:51:08;;;;;;;;;;;;;;;7.57;100.00;97262.31;10205937;23;19927;-77
2022/11/22 00:55:09;;;;;;;;;;;;;;;7.56;100.00;97257.19;10206844;23;19928;-77
2022/11/22 00:59:11;;;;;;;;;;;;;;;7.53;100.00;97267.56;10202524;23;20026;-77
2022/11/22 01:03:12;;;;;;;;;;;;;;;7.52;100.00;97265.88;10195953;23;19920;-77
2022/11/22 01:07:14;;;;;;;;;;;;;;;7.53;99.84;97283.06;10177875;23;19955;-77
2022/11/22 01:11:16;;;;;;;;;;;;;;;7.52;99.85;97286.53;10202979;23;19920;-77
2022/11/22 01:15:18;;;;;;;;;;;;;;;7.46;99.84;97297.88;10222007;23;19956;-77
2022/11/22 01:19:19;;;;;;;;;;;;;;;7.47;99.22;97303.91;10200424;23;19967;-77
2022/11/22 01:23:20;;;;;;;;;;;;;;;7.47;99.55;97302.16;10203520;23;19924;-77
2022/11/22 01:27:22;;;;;;;;;;;;;;;7.45;99.20;97298.78;10177989;23;19948;-77
2022/11/22 01:31:24;;;;;;;;;;;;;;;7.46;98.98;97320.28;10195390;23;19920;-77
2022/11/22 01:35:25;;;;;;;;;;;;;;;7.41;98.25;97314.38;10152987;23;19960;-77
2022/11/22 01:39:27;;;;;;;;;;;;;;;7.40;97.88;97310.97;10153044;23;19925;-77
2022/11/22 01:43:29;;;;;;;;;;;;;;;7.37;97.36;97312.78;10178714;23;19935;-77
2022/11/22 01:47:30;;;;;;;;;;;;;;;7.31;96.46;97311.19;10171105;23;19974;-77
2022/11/22 01:51:37;;;;;;;;;;;;;;;7.30;96.47;97304.31;10178222;23;19979;-77
2022/11/22 01:55:39;;;;;;;;;;;;;;;7.23;95.76;97313.97;10154646;23;19924;-77
2022/11/22 01:59:43;;;;;;;;;;;;;;;7.19;95.42;97324.41;10154991;23;20261;-77
2022/11/22 02:03:47;;;;;;;;;;;;;;;7.15;95.31;97327.91;10145894;23;19924;-77
2022/11/22 02:07:54;;;;;;;;;;;;;;;7.11;94.93;97331.47;10179096;23;20028;-77
2022/11/22 02:11:58;;;;;;;;;;;;;;;7.02;93.93;97329.13;10179571;23;19924;-77
2022/11/22 02:16:00;;;;;;;;;;;;;;;6.90;93.54;97332.81;10149040;23;19925;-77
2022/11/22 02:20:02;;;;;;;;;;;;;;;6.82;93.45;97338.16;10152765;23;19932;-78
2022/11/22 02:24:17;;;;;;;;;;;;;;;6.73;93.58;97342.66;10177819;23;20315;-77
2022/11/22 02:28:19;;;;;;;;;;;;;;;6.62;93.51;97345.47;10177013;23;20337;-77
2022/11/22 02:32:20;;;;;;;;;;;;;;;6.50;93.79;97348.34;10170264;23;19931;-77
2022/11/22 02:36:22;;;;;;;;;;;;;;;6.43;94.27;97349.31;10154484;23;20316;-77
2022/11/22 02:40:25;;;;;;;;;;;;;;;6.36;94.55;97356.34;10179529;23;19928;-77
2022/11/22 02:44:26;;;;;;;;;;;;;;;6.30;94.72;97359.06;10154447;23;19928;-77
2022/11/22 02:48:28;;;;;;;;;;;;;;;6.21;94.79;97370.38;10151336;23;19975;-77
2022/11/22 02:52:29;;;;;;;;;;;;;;;6.16;95.21;97379.94;10179346;23;20379;-77
2022/11/22 02:56:30;;;;;;;;;;;;;;;6.06;95.43;97393.84;10179855;23;19934;-77
2022/11/22 03:00:32;;;;;;;;;;;;;;;6.02;95.63;97393.06;10147345;23;19976;-77
2022/11/22 03:04:34;;;;;;;;;;;;;;;6.04;95.96;97383.56;10185917;23;19974;-77
2022/11/22 03:08:35;;;;;;;;;;;;;;;6.05;96.53;97387.00;10160235;23;19959;-77
2022/11/22 03:12:36;;;;;;;;;;;;;;;6.01;96.34;97377.66;10182585;23;19963;-77
2022/11/22 03:16:38;;;;;;;;;;;;;;;5.98;95.90;97372.56;10178713;23;19924;-77
2022/11/22 03:20:39;;;;;;;;;;;;;;;5.91;95.53;97376.94;10183616;23;20523;-77
2022/11/22 03:24:41;;;;;;;;;;;;;;;5.86;95.50;97385.63;10184010;23;19987;-77
2022/11/22 03:28:42;;;;;;;;;;;;;;;5.79;95.22;97384.88;10181479;23;19963;-77
2022/11/22 03:32:43;;;;;;;;;;;;;;;5.76;94.91;97379.78;10154493;23;19921;-77
2022/11/22 03:36:45;;;;;;;;;;;;;;;5.71;95.35;97373.84;10231070;23;19935;-77
2022/11/22 03:40:47;;;;;;;;;;;;;;;5.68;95.32;97385.06;10184316;23;19920;-77
2022/11/22 03:44:48;;;;;;;;;;;;;;;5.61;95.37;97380.06;10209994;23;20315;-77
2022/11/22 03:48:50;;;;;;;;;;;;;;;5.56;95.07;97394.72;10204298;23;19921;-77
2022/11/22 03:52:51;;;;;;;;;;;;;;;5.53;95.82;97400.75;10211320;23;19924;-77
2022/11/22 03:56:52;;;;;;;;;;;;;;;5.60;96.42;97394.66;10236094;23;19920;-77
2022/11/22 04:00:54;;;;;;;;;;;;;;;5.62;96.27;97394.63;10202785;23;20229;-77
2022/11/22 04:04:57;;;;;;;;;;;;;;;5.64;95.51;97385.16;10207413;23;19968;-78
2022/11/22 04:08:59;;;;;;;;;;;;;;;5.65;95.57;97379.13;10204980;23;19924;-77
2022/11/22 04:13:01;;;;;;;;;;;;;;;5.62;94.83;97384.31;10180466;23;19924;-77
2022/11/22 04:17:02;;;;;;;;;;;;;;;5.58;94.91;97393.84;10196432;23;19943;-77
2022/11/22 04:25:28;;;;;;;;;;;;;;;5.56;94.82;97392.97;10203423;23;19982;-77
2022/11/22 04:29:29;;;;;;;;;;;;;;;5.56;94.76;97395.56;10178793;23;20007;-77
2022/11/22 04:33:31;;;;;;;;;;;;;;;5.59;95.38;97397.25;10225175;23;19952;-77
2022/11/22 04:37:35;;;;;;;;;;;;;;;5.59;95.62;97410.13;10180612;23;19924;-78
2022/11/22 04:41:36;;;;;;;;;;;;;;;5.61;95.43;97408.38;10204483;23;19924;-77
2022/11/22 04:45:41;;;;;;;;;;;;;;;5.67;96.13;97415.97;10223371;23;19924;-77
2022/11/22 04:49:42;;;;;;;;;;;;;;;5.68;95.51;97412.53;10203424;23;19920;-77
2022/11/22 04:53:45;;;;;;;;;;;;;;;5.67;95.46;97416.84;10205307;23;20016;-77
2022/11/22 04:57:47;;;;;;;;;;;;;;;5.69;94.79;97414.22;10202852;23;19924;-77
2022/11/22 05:01:49;;;;;;;;;;;;;;;5.73;94.67;97415.88;10224368;23;20478;-77
2022/11/22 05:05:50;;;;;;;;;;;;;;;5.75;94.86;97412.41;10205040;23;20288;-77
2022/11/22 05:09:56;;;;;;;;;;;;;;;5.70;93.38;97432.22;10180727;23;19967;-77
2022/11/22 05:13:57;;;;;;;;;;;;;;;5.70;93.58;97421.94;10230051;23;19984;-77
2022/11/22 05:17:59;;;;;;;;;;;;;;;5.70;93.45;97427.06;10222125;23;19997;-77
2022/11/22 05:22:00;;;;;;;;;;;;;;;5.69;93.18;97430.53;10230558;23;19952;-77
2022/11/22 05:26:02;;;;;;;;;;;;;;;5.69;93.08;97427.94;10180716;23;20007;-77
2022/11/22 05:30:04;;;;;;;;;;;;;;;5.66;93.37;97433.16;10175222;23;20027;-78
2022/11/22 05:34:06;;;;;;;;;;;;;;;5.65;92.86;97438.34;10200746;23;19931;-77
2022/11/22 05:38:07;;;;;;;;;;;;;;;5.64;91.91;97440.06;10204964;23;19924;-77
2022/11/22 05:42:08;;;;;;;;;;;;;;;5.66;92.36;97434.88;10180080;23;19920;-77
2022/11/22 05:46:11;;;;;;;;;;;;;;;5.66;92.22;97442.59;10198754;23;19967;-77
2022/11/22 05:50:12;;;;;;;;;;;;;;;5.65;91.64;97452.06;10179291;23;19970;-77
2022/11/22 05:54:14;;;;;;;;;;;;;;;5.64;90.76;97439.22;10203793;23;19978;-77
2022/11/22 05:58:15;;;;;;;;;;;;;;;5.62;90.02;97444.38;10178946;23;19939;-78
2022/11/22 06:02:16;;;;;;;;;;;;;;;5.59;90.05;97447.00;10195600;23;20328;-77
2022/11/22 06:06:19;;;;;;;;;;;;;;;5.58;90.08;97462.50;10179236;23;19920;-77
2022/11/22 06:10:20;;;;;;;;;;;;;;;5.51;90.16;97460.88;10227949;23;19981;-77
2022/11/22 06:14:22;;;;;;;;;;;;;;;5.44;90.67;97468.69;10179179;23;19990;-77
2022/11/22 06:18:23;;;;;;;;;;;;;;;5.38;91.32;97462.75;10193842;23;20326;-77
2022/11/22 06:22:24;;;;;;;;;;;;;;;5.29;90.77;97468.06;10199644;23;19956;-76
2022/11/22 06:26:26;;;;;;;;;;;;;;;5.19;91.37;97476.78;10199872;23;19920;-77
2022/11/22 06:30:27;;;;;;;;;;;;;;;5.08;91.69;97470.06;10192597;23;20480;-77
2022/11/22 06:34:29;;;;;;;;;;;;;;;5.04;91.80;97476.13;10178736;23;19928;-77
2022/11/22 06:38:30;;;;;;;;;;;;;;;4.98;92.21;97470.19;10202593;23;19924;-78
2022/11/22 06:42:31;;;;;;;;;;;;;;;4.95;92.49;97465.94;10201687;23;19951;-77
2022/11/22 06:46:33;;;;;;;;;;;;;;;4.89;92.89;97462.63;10192666;23;19948;-76
2022/11/22 06:50:35;;;;;;;;;;;;;;;4.84;92.85;97472.94;10173517;23;19924;-77
2022/11/22 06:54:36;;;;;;;;;;;;;;;4.82;93.41;97480.69;10201373;23;20244;-77
2022/11/22 06:58:38;;;;;;;;;;;;;;;4.80;93.51;97491.84;10199170;23;19924;-77
2022/11/22 07:02:39;;;;;;;;;;;;;;;4.75;93.79;97481.63;10191822;23;19967;-77
2022/11/22 07:06:43;;;;;;;;;;;;;;;4.71;93.72;97487.69;10175220;23;20295;-77
2022/11/22 07:10:44;;;;;;;;;;;;;;;4.71;93.73;97489.41;10199173;23;20007;-77
2022/11/22 07:14:47;;;;;;;;;;;;;;;4.68;93.77;97477.44;10227510;23;20437;-77
2022/11/22 07:18:49;;;;;;;;;;;;;;;4.57;94.16;97489.56;10217728;23;19924;-77
2022/11/22 07:22:52;;;;;;;;;;;;;;;4.53;94.13;97501.59;10199840;23;19924;-78
2022/11/22 07:26:55;;;;;;;;;;;;;;;4.51;94.60;97493.06;10188922;23;20346;-78
2022/11/22 07:31:00;;;;;;;;;;;;;;;4.50;95.07;97487.94;10168431;23;20267;-78
2022/11/22 07:35:02;;;;;;;;;;;;;;;4.49;95.44;97491.38;10177635;23;20362;-78
2022/11/22 07:39:03;;;;;;;;;;;;;;;4.44;95.10;97504.25;10176779;23;20308;-78
2022/11/22 07:43:04;;;;;;;;;;;;;;;4.44;95.14;97513.69;10200284;23;19955;-78
2022/11/22 07:47:06;;;;;;;;;;;;;;;4.49;95.67;97525.63;10168297;23;20236;-78
2022/11/22 07:51:08;;;;;;;;;;;;;;;4.58;96.00;97534.09;10200450;23;19963;-78
2022/11/22 07:55:10;;;;;;;;;;;;;;;4.70;97.09;97541.69;10200498;23;19998;-78
2022/11/22 07:59:14;;;;;;;;;;;;;;;4.80;97.16;97551.84;10200760;23;20032;-78
2022/11/22 08:03:16;;;;;;;;;;;;;;;4.90;96.68;97549.19;10193473;23;19935;-78
2022/11/22 08:07:25;;;;;;;;;;;;;;;5.04;96.62;97555.00;10226439;23;19924;-78
2022/11/22 08:11:27;;;;;;;;;;;;;;;5.12;95.87;97561.75;10200369;23;19928;-78
2022/11/22 08:15:29;;;;;;;;;;;;;;;5.28;95.96;97562.41;10218196;23;19925;-77
2022/11/22 08:19:30;;;;;;;;;;;;;;;5.32;95.45;97563.22;10177648;23;19921;-78
2022/11/22 08:23:32;;;;;;;;;;;;;;;5.35;95.65;97569.16;10180548;23;19999;-78
2022/11/22 08:27:33;;;;;;;;;;;;;;;5.37;95.30;97557.13;10177583;23;19959;-78
2022/11/22 08:31:35;;;;;;;;;;;;;;;5.41;94.39;97557.97;10220984;23;19950;-78
2022/11/22 08:35:37;;;;;;;;;;;;;;;5.50;94.98;97547.53;10154863;23;19928;-78
2022/11/22 08:39:38;;;;;;;;;;;;;;;5.60;94.58;97564.56;10179121;23;19987;-78
2022/11/22 08:43:39;;;;;;;;;;;;;;;5.66;94.19;97554.16;10153741;23;20467;-78
2022/11/22 08:47:41;;;;;;;;;;;;;;;5.86;93.88;97550.44;10148289;23;19925;-77
2022/11/22 08:51:44;;;;;;;;;;;;;;;6.17;92.54;97536.22;10156714;23;19924;-78
2022/11/22 08:55:45;;;;;;;;;;;;;;;6.45;92.19;97534.00;10182154;23;19920;-77
2022/11/22 08:59:46;;;;;;;;;;;;;;;6.83;90.28;97528.16;10162880;23;20260;-80
2022/11/22 09:03:48;;;;;;;;;;;;;;;7.09;87.61;97516.44;10178198;23;19931;-79
2022/11/22 09:07:49;;;;;;;;;;;;;;;7.13;84.31;97520.66;10185227;23;19935;-79
2022/11/22 09:12:11;;;;;;;;;;;;;;;7.14;84.26;97519.78;10173603;23;19920;-80
2022/11/22 09:16:14;;;;;;;;;;;;;;;7.32;83.99;97526.28;10186709;23;19944;-80
2022/11/22 09:20:19;;;;;;;;;;;;;;;7.33;82.30;97530.56;10192535;23;19924;-81
2022/11/22 09:24:20;;;;;;;;;;;;;;;7.31;83.51;97520.28;10189261;23;19979;-78
2022/11/22 09:28:21;;;;;;;;;;;;;;;7.45;84.52;97519.97;10185121;23;19924;-78
2022/11/22 09:32:23;;;;;;;;;;;;;;;7.54;83.22;97512.00;10176303;23;19924;-78
2022/11/22 09:36:30;;;;;;;;;;;;;;;7.51;83.27;97507.78;10183052;23;19947;-79
2022/11/22 09:40:32;;;;;;;;;;;;;;;7.52;82.97;97499.13;10157673;23;19971;-79
2022/11/22 09:44:44;;;;;;;;;;;;;;;7.67;83.84;97502.25;10188089;23;19921;-78
2022/11/22 09:48:54;;;;;;;;;;;;;;;7.83;81.92;97514.78;10173036;23;19925;-79
2022/11/22 09:53:00;;;;;;;;;;;;;;;7.87;82.10;97500.91;10186977;23;19925;-79
2022/11/22 09:57:03;;;;;;;;;;;;;;;7.87;81.06;97494.88;10157481;23;19975;-80
2022/11/22 10:01:17;;;;;;;;;;;;;;;7.78;80.79;97493.38;10150868;23;19925;-79
2022/11/22 10:05:23;;;;;;;;;;;;;;;7.51;80.86;97501.75;10155154;23;19952;-78
2022/11/22 10:09:24;;;;;;;;;;;;;;;7.50;81.72;97500.06;10178360;23;19924;-78
2022/11/22 10:13:39;;;;;;;;;;;;;;;7.46;81.48;97491.53;10182956;23;19928;-77
2022/11/22 10:17:55;;;;;;;;;;;;;;;7.50;81.97;97494.91;10146443;23;20343;-78
2022/11/22 10:21:56;;;;;;;;;;;;;;;7.54;82.42;97502.56;10180432;23;19921;-78
2022/11/22 10:25:59;;;;;;;;;;;;;;;7.62;81.95;97496.34;10187131;23;20297;-80
2022/11/22 10:30:03;;;;;;;;;;;;;;;7.64;81.63;97494.59;10183815;23;19925;-78
2022/11/22 10:34:30;;;;;;;;;;;;;;;7.59;80.70;97510.19;10191187;23;19935;-78
2022/11/22 10:38:34;;;;;;;;;;;;;;;7.63;81.84;97501.47;10179770;23;19924;-78
2022/11/22 10:42:39;;;;;;;;;;;;;;;7.60;81.71;97498.97;10228347;23;19920;-78
2022/11/22 10:46:43;;;;;;;;;;;;;;;7.42;83.02;97502.81;10196453;23;19924;-78
2022/11/22 10:50:44;;;;;;;;;;;;;;;7.40;84.53;97491.69;10206137;23;19924;-77
2022/11/22 10:54:58;;;;;;;;;;;;;;;7.39;85.39;97495.16;10181334;23;19959;-77
2022/11/22 10:59:17;;;;;;;;;;;;;;;7.42;86.02;97497.66;10200896;23;20399;-76
2022/11/22 11:03:34;;;;;;;;;;;;;;;7.37;86.79;97491.75;10177067;23;19924;-79
2022/11/22 11:07:37;;;;;;;;;;;;;;;7.35;86.46;97496.09;10185119;23;19924;-78
2022/11/22 11:11:40;;;;;;;;;;;;;;;7.30;87.28;97486.75;10208506;23;20402;-78
2022/11/22 11:15:47;;;;;;;;;;;;;;;7.28;88.54;97482.47;10179183;23;20281;-78
2022/11/22 11:19:57;;;;;;;;;;;;;;;7.28;88.46;97479.03;10208426;23;19924;-78
2022/11/22 11:23:59;;;;;;;;;;;;;;;7.27;89.30;97479.94;10182820;23;19925;-78
2022/11/22 11:28:05;;;;;;;;;;;;;;;7.31;90.16;97472.97;10209421;23;19924;-78
2022/11/22 11:32:07;;;;;;;;;;;;;;;7.36;90.04;97472.00;10202020;23;19948;-77
2022/11/22 11:36:14;;;;;;;;;;;;;;;7.36;89.61;97484.03;10156865;23;19952;-78
2022/11/22 11:40:25;;;;;;;;;;;;;;;7.27;90.14;97477.34;10183837;23;19924;-77
2022/11/22 11:44:35;;;;;;;;;;;;;;;7.24;90.16;97472.25;10184514;23;19931;-77
2022/11/22 11:48:37;;;;;;;;;;;;;;;7.10;90.41;97475.13;10179216;23;19936;-78
2022/11/22 11:52:38;;;;;;;;;;;;;;;7.03;91.38;97481.31;10175974;23;19929;-77
2022/11/22 11:56:44;;;;;;;;;;;;;;;6.98;92.18;97483.97;10179616;23;20204;-78
2022/11/22 12:00:46;;;;;;;;;;;;;;;6.88;92.87;97492.78;10172446;23;19982;-78
2022/11/22 12:04:48;;;;;;;;;;;;;;;6.92;93.14;97480.69;10185269;23;19944;-78
2022/11/22 12:08:49;;;;;;;;;;;;;;;6.99;93.26;97469.34;10162192;23;19932;-78
2022/11/22 12:13:10;;;;;;;;;;;;;;;7.04;93.43;97472.69;10177670;23;19933;-76
2022/11/22 12:17:16;;;;;;;;;;;;;;;7.05;93.48;97474.38;10171926;23;19974;-76
2022/11/22 12:21:23;;;;;;;;;;;;;;;7.17;93.78;97476.69;10177356;23;19967;-77
2022/11/22 12:25:24;;;;;;;;;;;;;;;7.10;93.39;97477.72;10176655;23;19925;-77
2022/11/22 12:29:33;;;;;;;;;;;;;;;7.12;93.71;97475.94;10176712;23;19924;-76
2022/11/22 12:33:38;;;;;;;;;;;;;;;7.06;93.01;97488.13;10181855;23;19924;-76
2022/11/22 12:37:52;;;;;;;;;;;;;;;7.04;93.34;97477.00;10178891;23;19923;-76
2022/11/22 12:41:59;;;;;;;;;;;;;;;7.04;93.75;97479.59;10227626;23;19924;-76
2022/11/22 12:46:08;;;;;;;;;;;;;;;7.02;93.61;97468.44;10172126;23;19962;-76
2022/11/22 12:50:36;;;;;;;;;;;;;;;7.06;94.51;97481.25;10176632;23;19927;-76
2022/11/22 12:54:42;;;;;;;;;;;;;;;7.15;95.16;97475.88;10176414;23;19999;-76
2022/11/22 12:58:55;;;;;;;;;;;;;;;7.12;94.93;97483.69;10203168;23;19943;-76
2022/11/22 13:03:03;;;;;;;;;;;;;;;7.13;95.08;97490.53;10196350;23;19952;-76
2022/11/22 13:07:10;;;;;;;;;;;;;;;7.17;95.44;97487.00;10225857;23;19924;-76
2022/11/22 13:11:12;;;;;;;;;;;;;;;7.23;95.66;97480.88;10200592;23;19939;-76
2022/11/22 13:15:18;;;;;;;;;;;;;;;7.29;95.36;97483.31;10221608;23;19924;-77
2022/11/22 13:19:21;;;;;;;;;;;;;;;7.24;95.04;97488.59;10195396;23;19956;-76
2022/11/22 13:23:43;;;;;;;;;;;;;;;7.26;95.06;97489.41;10225945;23;19924;-76
2022/11/22 13:27:47;;;;;;;;;;;;;;;7.21;95.19;97483.50;10198847;23;20056;-76
2022/11/22 13:32:05;;;;;;;;;;;;;;;7.15;95.63;97493.94;10191711;23;20239;-76
2022/11/22 13:36:26;;;;;;;;;;;;;;;7.10;95.72;97489.75;10166027;23;20002;-76
2022/11/22 13:40:28;;;;;;;;;;;;;;;7.12;96.48;97503.47;10192165;23;20762;-76
2022/11/22 13:44:30;;;;;;;;;;;;;;;7.15;96.65;97485.34;10220714;23;20008;-76
2022/11/22 13:48:38;;;;;;;;;;;;;;;7.20;96.67;97492.13;10192952;23;19955;-77
2022/11/22 13:52:50;;;;;;;;;;;;;;;7.18;96.62;97485.28;10175166;23;19935;-77
2022/11/22 13:56:58;;;;;;;;;;;;;;;7.18;96.68;97491.31;10198768;23;19975;-77
2022/11/22 14:00:59;;;;;;;;;;;;;;;7.20;96.42;97501.59;10163549;23;19924;-76
2022/11/22 14:05:01;;;;;;;;;;;;;;;7.15;96.82;97487.94;10174314;23;20563;-77
2022/11/22 14:09:32;;;;;;;;;;;;;;;7.16;97.08;97492.19;10196760;23;20124;-77
2022/11/22 14:13:53;;;;;;;;;;;;;;;7.17;97.29;97489.59;10170797;23;19924;-76
2022/11/22 14:18:02;;;;;;;;;;;;;;;7.19;97.29;97497.31;10189006;23;19935;-77
2022/11/22 14:22:11;;;;;;;;;;;;;;;7.18;97.18;97496.47;10224940;23;19924;-77
2022/11/22 14:26:19;;;;;;;;;;;;;;;7.18;97.41;97493.00;10199268;23;19924;-77
2022/11/22 14:30:22;;;;;;;;;;;;;;;7.11;97.41;97489.72;10193118;23;19924;-77
2022/11/22 14:34:27;;;;;;;;;;;;;;;7.16;97.96;97490.47;10197748;23;19978;-76
2022/11/22 14:38:31;;;;;;;;;;;;;;;7.16;97.71;97489.63;10198891;23;19935;-76
2022/11/22 14:46:56;;;;;;;;;;;;;;;7.17;97.98;97499.91;10198174;23;19966;-77
2022/11/22 14:51:00;;;;;;;;;;;;;;;7.11;97.98;97497.47;10174842;23;19924;-77
2022/11/22 14:55:04;;;;;;;;;;;;;;;7.12;98.61;97508.63;10227549;23;19924;-77
2022/11/22 14:59:32;;;;;;;;;;;;;;;7.11;98.37;97500.06;10201864;23;19953;-77
2022/11/22 15:03:52;;;;;;;;;;;;;;;7.14;98.62;97509.44;10223378;23;20008;-79
2022/11/22 15:08:21;;;;;;;;;;;;;;;7.12;98.68;97506.06;10205977;23;19977;-79
2022/11/22 15:12:42;;;;;;;;;;;;;;;7.15;99.07;97506.00;10187231;23;19935;-79
2022/11/22 15:16:44;;;;;;;;;;;;;;;7.13;98.98;97506.03;10178475;23;19920;-79
2022/11/22 15:21:16;;;;;;;;;;;;;;;7.11;99.73;97506.94;10189797;23;20003;-79
2022/11/22 15:25:37;;;;;;;;;;;;;;;7.10;99.54;97505.25;10212489;23;19990;-79
2022/11/22 15:30:05;;;;;;;;;;;;;;;7.13;99.66;97507.75;10207667;23;19924;-79
2022/11/22 15:34:27;;;;;;;;;;;;;;;7.09;99.28;97526.78;10207211;23;19928;-79
2022/11/22 15:38:48;;;;;;;;;;;;;;;7.10;99.63;97519.00;10207267;23;19921;-79
2022/11/22 15:43:11;;;;;;;;;;;;;;;7.12;99.77;97526.72;10185917;23;19935;-79
2022/11/22 15:47:32;;;;;;;;;;;;;;;7.11;99.56;97538.75;10177560;23;20023;-78
2022/11/22 15:51:55;;;;;;;;;;;;;;;7.13;100.00;97549.06;10208682;23;19924;-79
2022/11/22 15:56:26;;;;;;;;;;;;;;;7.14;99.92;97561.06;10232275;23;19999;-79
2022/11/22 16:00:47;;;;;;;;;;;;;;;7.13;100.00;97560.22;10199068;23;20028;-80
2022/11/22 16:04:50;;;;;;;;;;;;;;;7.15;100.00;97563.63;10207943;23;19954;-80
2022/11/22 16:09:22;;;;;;;;;;;;;;;7.18;99.77;97573.03;10207341;23;20299;-80
2022/11/22 16:13:25;;;;;;;;;;;;;;;7.16;99.83;97573.06;10181371;23;20316;-80
2022/11/22 16:17:37;;;;;;;;;;;;;;;7.15;99.69;97575.69;10228637;23;19960;-80
2022/11/22 16:21:38;;;;;;;;;;;;;;;7.13;99.57;97575.72;10183642;23;20647;-80
2022/11/22 16:25:41;;;;;;;;;;;;;;;7.09;99.37;97581.81;10231830;23;19952;-79
2022/11/22 16:29:49;;;;;;;;;;;;;;;7.01;99.71;97588.88;10179628;23;19956;-79
2022/11/22 16:33:51;;;;;;;;;;;;;;;6.97;99.82;97582.91;10204842;23;20011;-80
2022/11/22 16:37:52;;;;;;;;;;;;;;;6.91;99.89;97593.34;10210000;23;19962;-79
2022/11/22 16:41:54;;;;;;;;;;;;;;;6.90;100.00;97598.53;10231354;23;20439;-80
2022/11/22 16:45:55;;;;;;;;;;;;;;;6.87;100.00;97596.00;10197906;23;19924;-80
2022/11/22 16:49:57;;;;;;;;;;;;;;;6.86;100.00;97594.31;10203783;23;19924;-79
2022/11/22 16:54:04;;;;;;;;;;;;;;;6.84;99.89;97591.78;10204277;23;20285;-79
2022/11/22 16:58:11;;;;;;;;;;;;;;;6.79;99.75;97601.28;10204478;23;19924;-80
2022/11/22 17:02:14;;;;;;;;;;;;;;;6.76;100.00;97603.09;10226233;23;19924;-79
2022/11/22 17:06:17;;;;;;;;;;;;;;;6.76;100.00;97618.56;10231373;23;19967;-79
2022/11/22 17:10:19;;;;;;;;;;;;;;;6.77;100.00;97618.53;10203527;23;20007;-80
2022/11/22 17:14:20;;;;;;;;;;;;;;;6.78;100.00;97620.22;10201912;23;20275;-79
2022/11/22 17:18:22;;;;;;;;;;;;;;;6.80;100.00;97625.34;10169222;23;20324;-79
2022/11/22 17:22:24;;;;;;;;;;;;;;;6.79;100.00;97634.81;10179159;23;19931;-79
2022/11/22 17:26:25;;;;;;;;;;;;;;;6.83;100.00;97638.22;10203646;23;19959;-78
2022/11/22 17:30:27;;;;;;;;;;;;;;;6.84;100.00;97640.78;10198671;23;20614;-78
2022/11/22 17:34:28;;;;;;;;;;;;;;;6.86;100.00;97644.19;10203338;23;19982;-78
2022/11/22 17:38:30;;;;;;;;;;;;;;;6.87;100.00;97652.75;10176695;23;19932;-77
2022/11/22 17:42:33;;;;;;;;;;;;;;;6.86;100.00;97663.97;10199443;23;19924;-79
2022/11/22 17:46:42;;;;;;;;;;;;;;;6.85;100.00;97670.84;10180135;23;19932;-79
2022/11/22 17:50:44;;;;;;;;;;;;;;;6.82;100.00;97668.34;10176091;23;19924;-78
2022/11/22 17:54:45;;;;;;;;;;;;;;;6.84;100.00;97664.00;10177999;23;19924;-79
2022/11/22 17:58:47;;;;;;;;;;;;;;;6.85;100.00;97670.00;10200063;23;19928;-78
2022/11/22 18:02:49;;;;;;;;;;;;;;;6.85;100.00;97664.84;10194158;23;19955;-78
2022/11/22 18:06:50;;;;;;;;;;;;;;;6.81;100.00;97666.59;10177093;23;19985;-78
2022/11/22 18:10:52;;;;;;;;;;;;;;;6.78;100.00;97676.13;10175535;23;19925;-78
2022/11/22 18:14:54;;;;;;;;;;;;;;;6.72;99.77;97671.94;10176264;23;19924;-78
2022/11/22 18:18:55;;;;;;;;;;;;;;;6.72;99.86;97676.25;10190815;23;19924;-77
2022/11/22 18:22:58;;;;;;;;;;;;;;;6.69;99.68;97679.72;10198064;23;20103;-77
2022/11/22 18:27:00;;;;;;;;;;;;;;;6.69;99.85;97679.72;10223024;23;19924;-76
2022/11/22 18:31:01;;;;;;;;;;;;;;;6.70;99.94;97683.16;10164477;23;19925;-77
2022/11/22 18:35:03;;;;;;;;;;;;;;;6.71;99.85;97684.84;10197051;23;19924;-77
2022/11/22 18:39:04;;;;;;;;;;;;;;;6.69;99.53;97684.03;10172300;23;19967;-77
2022/11/22 18:43:05;;;;;;;;;;;;;;;6.68;99.63;97687.50;10194227;23;20032;-77
2022/11/22 18:47:08;;;;;;;;;;;;;;;6.63;99.29;97692.69;10188290;23;20012;-76
2022/11/22 18:51:09;;;;;;;;;;;;;;;6.59;99.60;97698.78;10220450;23;19970;-77
2022/11/22 18:55:14;;;;;;;;;;;;;;;6.55;99.25;97708.31;10195857;23;19999;-77
2022/11/22 18:59:16;;;;;;;;;;;;;;;6.52;99.28;97713.50;10194464;23;19955;-77
2022/11/22 19:03:17;;;;;;;;;;;;;;;6.50;99.58;97715.28;10196089;23;19990;-77
2022/11/22 19:07:21;;;;;;;;;;;;;;;6.50;99.88;97722.16;10170017;23;20010;-76
2022/11/22 19:11:23;;;;;;;;;;;;;;;6.52;99.92;97728.97;10194370;23;19924;-77
2022/11/22 19:15:25;;;;;;;;;;;;;;;6.49;99.90;97730.75;10222453;23;19928;-77
2022/11/22 19:19:30;;;;;;;;;;;;;;;6.50;99.99;97732.47;10171629;23;20389;-77
2022/11/22 19:23:32;;;;;;;;;;;;;;;6.48;100.00;97729.91;10198504;23;19924;-77
2022/11/22 19:27:34;;;;;;;;;;;;;;;6.49;100.00;97730.75;10168099;23;19963;-77
2022/11/22 19:31:36;;;;;;;;;;;;;;;6.47;99.91;97722.19;10160214;23;20007;-77
2022/11/22 19:35:37;;;;;;;;;;;;;;;6.45;99.97;97727.34;10219487;23;19964;-77
2022/11/22 19:39:39;;;;;;;;;;;;;;;6.43;100.00;97721.38;10195294;23;19931;-77
2022/11/22 19:43:40;;;;;;;;;;;;;;;6.41;99.56;97727.44;10222662;23;19928;-77
2022/11/22 19:47:42;;;;;;;;;;;;;;;6.40;100.00;97723.16;10217542;23;20498;-77
2022/11/22 19:51:43;;;;;;;;;;;;;;;6.39;99.93;97721.44;10222034;23;19928;-78
2022/11/22 19:55:44;;;;;;;;;;;;;;;6.37;99.91;97726.63;10196014;23;19972;-78
2022/11/22 19:59:46;;;;;;;;;;;;;;;6.38;100.00;97725.75;10224194;23;20205;-77
2022/11/22 20:03:51;;;;;;;;;;;;;;;6.41;100.00;97727.44;10190944;23;19994;-77
2022/11/22 20:07:52;;;;;;;;;;;;;;;6.40;100.00;97738.63;10222759;23;19954;-77
2022/11/22 20:11:54;;;;;;;;;;;;;;;6.44;99.97;97740.28;10171437;23;20002;-76
2022/11/22 20:15:56;;;;;;;;;;;;;;;6.44;100.00;97751.44;10168553;23;19924;-77
2022/11/22 20:19:57;;;;;;;;;;;;;;;6.45;100.00;97749.69;10201356;23;19920;-77
2022/11/22 20:23:59;;;;;;;;;;;;;;;6.45;99.76;97752.28;10227322;23;20423;-77
2022/11/22 20:28:01;;;;;;;;;;;;;;;6.47;99.61;97758.31;10176703;23;19932;-77
2022/11/22 20:32:02;;;;;;;;;;;;;;;6.49;99.67;97759.13;10202270;23;19924;-77
2022/11/22 20:36:05;;;;;;;;;;;;;;;6.53;99.44;97769.38;10199844;23;19924;-78
2022/11/22 20:40:06;;;;;;;;;;;;;;;6.52;99.48;97764.22;10174484;23;20498;-77
2022/11/22 20:44:10;;;;;;;;;;;;;;;6.54;99.24;97768.50;10227191;23;20568;-77
2022/11/22 20:48:13;;;;;;;;;;;;;;;6.55;99.32;97769.34;10171175;23;19978;-77
2022/11/22 20:52:15;;;;;;;;;;;;;;;6.54;98.66;97776.22;10177353;23;19925;-77
2022/11/22 20:56:17;;;;;;;;;;;;;;;6.53;98.69;97774.53;10176843;23;19920;-77
2022/11/22 21:00:19;;;;;;;;;;;;;;;6.54;98.64;97775.38;10195768;23;20019;-78
2022/11/22 21:04:20;;;;;;;;;;;;;;;6.58;98.43;97782.19;10164873;23;19924;-77
2022/11/22 21:08:24;;;;;;;;;;;;;;;6.59;98.76;97781.31;10175421;23;19923;-78
2022/11/22 21:12:29;;;;;;;;;;;;;;;6.59;98.61;97791.63;10204746;23;19934;-78
2022/11/22 21:16:31;;;;;;;;;;;;;;;6.61;98.67;97793.28;10170181;23;19924;-77
2022/11/22 21:20:35;;;;;;;;;;;;;;;6.63;98.46;97796.69;10231458;23;19924;-78